createdAt,value
2018-10-06T00:01:12.713Z,54.60
2018-10-06T00:03:42.531Z,56.00
2018-10-06T00:06:11.235Z,59.60
2018-10-06T00:08:39.607Z,64.30
2018-10-06T00:11:08.498Z,66.60
2018-10-06T00:13:36.876Z,64.60
2018-10-06T00:16:05.509Z,63.30
2018-10-06T00:18:34.402Z,56.00
2018-10-06T00:21:02.786Z,50.80
2018-10-06T00:23:31.643Z,55.70
2018-10-06T00:26:00.013Z,55.90
2018-10-06T00:28:28.715Z,55.50
2018-10-06T00:30:57.055Z,54.90
2018-10-06T00:33:25.675Z,55.80
2018-10-06T00:35:54.628Z,57.80
2018-10-06T00:38:22.990Z,56.60
2018-10-06T00:40:51.590Z,54.80
2018-10-06T00:43:19.939Z,53.30
2018-10-06T00:45:48.551Z,51.60
2018-10-06T00:48:17.538Z,48.70
2018-10-06T00:50:47.817Z,50.60
2018-10-06T00:53:16.198Z,50.20
2018-10-06T00:55:44.867Z,52.50
2018-10-06T00:58:13.235Z,53.60
2018-10-06T01:00:41.638Z,53.70
2018-10-06T01:03:10.305Z,59.20
2018-10-06T01:05:38.666Z,61.20
2018-10-06T01:08:07.027Z,62.00
2018-10-06T01:10:35.421Z,62.70
2018-10-06T01:13:04.098Z,58.70
2018-10-06T01:15:32.459Z,57.90
2018-10-06T01:18:01.379Z,57.70
2018-10-06T01:20:29.722Z,56.30
2018-10-06T01:22:58.624Z,53.30
2018-10-06T01:25:27.238Z,48.60
2018-10-06T01:27:56.114Z,42.70
2018-10-06T01:30:24.536Z,38.60
2018-10-06T01:32:52.958Z,45.90
2018-10-06T01:35:21.849Z,51.30
2018-10-06T01:37:50.501Z,53.60
2018-10-06T01:40:18.856Z,58.10
2018-10-06T01:42:47.194Z,57.60
2018-10-06T01:45:15.547Z,57.10
2018-10-06T01:47:44.146Z,59.10
2018-10-06T01:50:12.531Z,60.80
2018-10-06T01:52:40.871Z,65.70
2018-10-06T01:55:09.243Z,62.50
2018-10-06T01:57:38.402Z,67.00
2018-10-06T02:00:07.418Z,66.20
2018-10-06T02:02:36.322Z,60.80
2018-10-06T02:05:04.750Z,54.60
2018-10-06T02:07:33.136Z,48.90
2018-10-06T02:10:01.809Z,48.50
2018-10-06T02:12:30.175Z,45.70
2018-10-06T02:14:58.767Z,43.60
2018-10-06T02:17:27.142Z,49.80
2018-10-06T02:19:55.527Z,49.50
2018-10-06T02:22:23.903Z,56.30
2018-10-06T02:24:52.523Z,55.30
2018-10-06T02:27:21.368Z,58.50
2018-10-06T02:29:49.782Z,60.80
2018-10-06T02:32:18.647Z,57.00
2018-10-06T02:34:47.291Z,61.70
2018-10-06T02:37:15.937Z,68.30
2018-10-06T02:39:44.547Z,69.10
2018-10-06T02:42:13.260Z,70.80
2018-10-06T02:44:41.618Z,71.80
2018-10-06T02:47:11.275Z,66.80
2018-10-06T02:49:41.569Z,59.80
2018-10-06T02:52:11.150Z,58.00
2018-10-06T02:54:40.091Z,56.00
2018-10-06T02:57:08.607Z,57.10
2018-10-06T02:59:37.154Z,58.40
2018-10-06T03:02:07.351Z,60.90
2018-10-06T03:04:35.718Z,62.10
2018-10-06T03:07:04.110Z,66.10
2018-10-06T03:09:32.470Z,65.20
2018-10-06T03:12:01.117Z,65.80
2018-10-06T03:14:29.478Z,65.70
2018-10-06T03:16:57.927Z,64.90
2018-10-06T03:19:26.538Z,64.00
2018-10-06T03:21:55.247Z,63.70
2018-10-06T03:24:23.594Z,63.40
2018-10-06T03:26:52.107Z,61.10
2018-10-06T03:29:21.074Z,62.00
2018-10-06T03:31:49.763Z,61.00
2018-10-06T03:34:18.662Z,60.00
2018-10-06T03:36:47.040Z,59.70
2018-10-06T03:39:15.602Z,60.90
2018-10-06T03:41:44.202Z,61.80
2018-10-06T03:44:13.186Z,65.60
2018-10-06T03:46:41.823Z,64.50
2018-10-06T03:49:10.431Z,58.20
2018-10-06T03:51:38.963Z,58.20
2018-10-06T03:54:10.407Z,63.80
2018-10-06T03:56:40.855Z,65.50
2018-10-06T03:59:09.458Z,65.50
2018-10-06T04:01:38.090Z,64.00
2018-10-06T04:04:06.771Z,63.50
2018-10-06T04:06:35.278Z,64.10
2018-10-06T04:09:04.783Z,63.70
2018-10-06T04:11:33.892Z,63.20
2018-10-06T04:14:02.235Z,64.30
2018-10-06T04:16:30.883Z,64.40
2018-10-06T04:18:59.399Z,64.90
2018-10-06T04:21:32.059Z,65.70
2018-10-06T04:24:00.931Z,65.50
2018-10-06T04:26:29.307Z,68.10
2018-10-06T04:28:57.679Z,68.00
2018-10-06T04:31:26.023Z,68.10
2018-10-06T04:33:54.383Z,68.40
2018-10-06T04:36:23.015Z,68.00
2018-10-06T04:38:51.850Z,68.70
2018-10-06T04:41:20.813Z,64.00
2018-10-06T04:43:49.571Z,54.00
2018-10-06T04:46:17.935Z,64.30
2018-10-06T04:48:46.286Z,66.50
2018-10-06T04:51:14.670Z,63.60
2018-10-06T04:53:43.398Z,61.20
2018-10-06T04:56:12.427Z,60.30
2018-10-06T04:58:41.222Z,62.80
2018-10-06T05:01:10.342Z,70.50
2018-10-06T05:03:38.979Z,71.70
2018-10-06T05:06:08.307Z,70.60
2018-10-06T05:08:37.144Z,70.60
2018-10-06T05:11:06.126Z,69.90
2018-10-06T05:13:35.411Z,68.00
2018-10-06T05:16:04.098Z,66.30
2018-10-06T05:18:32.475Z,64.50
2018-10-06T05:21:01.427Z,69.40
2018-10-06T05:23:30.524Z,56.20
2018-10-06T05:25:59.221Z,68.10
2018-10-06T05:28:28.381Z,74.70
2018-10-06T05:30:57.007Z,77.40
2018-10-06T05:33:25.473Z,78.70
2018-10-06T05:35:53.855Z,80.00
2018-10-06T05:38:22.267Z,79.80
2018-10-06T05:40:50.962Z,78.90
2018-10-06T05:43:19.358Z,78.00
2018-10-06T05:45:47.711Z,76.80
2018-10-06T05:48:16.695Z,77.00
2018-10-06T05:50:45.111Z,75.40
2018-10-06T05:53:13.679Z,74.40
2018-10-06T05:55:42.034Z,73.40
2018-10-06T05:58:10.427Z,69.80
2018-10-06T06:00:38.795Z,66.80
2018-10-06T06:03:07.305Z,66.90
2018-10-06T06:05:35.664Z,67.70
2018-10-06T06:08:04.047Z,60.40
2018-10-06T06:10:32.403Z,57.90
2018-10-06T06:13:01.371Z,53.20
2018-10-06T06:15:29.805Z,64.60
2018-10-06T06:17:58.095Z,55.80
2018-10-06T06:20:26.739Z,52.40
2018-10-06T06:22:55.089Z,50.00
2018-10-06T06:25:23.463Z,51.30
2018-10-06T06:27:51.850Z,49.50
2018-10-06T06:30:20.747Z,40.20
2018-10-06T06:32:49.463Z,35.40
2018-10-06T06:35:17.863Z,27.40
2018-10-06T06:37:47.552Z,24.50
2018-10-06T06:40:15.910Z,14.80
2018-10-06T06:42:44.791Z,8.70
2018-10-06T06:45:13.851Z,11.20
2018-10-06T06:47:42.231Z,8.70
2018-10-06T06:50:10.643Z,8.10
2018-10-06T06:52:38.999Z,1.20
2018-10-06T06:55:08.162Z,1.00
2018-10-06T06:57:36.532Z,1.10
2018-10-06T07:00:05.958Z,1.00
2018-10-06T07:02:34.367Z,1.00
2018-10-06T07:05:02.790Z,1.00
2018-10-06T07:07:31.746Z,1.00
2018-10-06T07:10:01.968Z,1.00
2018-10-06T07:12:31.092Z,1.00
2018-10-06T07:14:59.473Z,6.50
2018-10-06T07:17:27.811Z,1.00
2018-10-06T07:19:57.922Z,1.00
2018-10-06T07:24:56.024Z,1.00
2018-10-06T07:27:25.699Z,1.00
2018-10-06T07:29:55.450Z,1.00
2018-10-06T07:32:24.670Z,1.00
2018-10-06T07:34:53.953Z,1.00
2018-10-06T07:37:25.477Z,1.00
2018-10-06T07:39:53.870Z,99.90
2018-10-06T07:42:23.658Z,99.90
2018-10-06T07:44:52.971Z,1.00
2018-10-06T07:47:22.796Z,1.00
2018-10-06T07:49:51.695Z,99.90
2018-10-06T07:52:20.259Z,87.40
2018-10-06T07:54:49.653Z,99.90
2018-10-06T07:57:19.610Z,1.00
2018-10-06T07:59:50.303Z,1.00
2018-10-06T08:02:20.644Z,99.90
2018-10-06T08:04:50.347Z,99.90
2018-10-06T08:07:18.810Z,1.00
2018-10-06T08:09:47.423Z,1.00
2018-10-06T08:12:16.307Z,1.00
2018-10-06T08:17:16.730Z,99.90
2018-10-06T08:19:48.453Z,99.90
2018-10-06T08:22:17.973Z,99.90
2018-10-06T08:27:17.332Z,99.90
2018-10-06T08:29:48.592Z,99.90
2018-10-06T08:32:17.923Z,99.90
2018-10-06T08:34:47.340Z,1.00
2018-10-06T08:37:16.476Z,1.00
2018-10-06T08:39:45.937Z,1.00
2018-10-06T08:42:14.690Z,99.90
2018-10-06T08:44:43.027Z,1.00
2018-10-06T08:47:11.754Z,1.00
2018-10-06T08:49:40.167Z,1.00
2018-10-06T08:52:08.495Z,99.90
2018-10-06T08:54:37.111Z,99.90
2018-10-06T08:57:05.759Z,99.90
2018-10-06T08:59:34.343Z,99.90
2018-10-06T09:02:03.566Z,99.90
2018-10-06T09:04:31.932Z,99.90
2018-10-06T09:07:01.215Z,99.90
2018-10-06T09:09:29.570Z,99.90
2018-10-06T09:11:57.941Z,99.90
2018-10-06T09:14:26.560Z,99.90
2018-10-06T09:16:54.967Z,99.90
2018-10-06T09:19:23.861Z,99.90
2018-10-06T09:21:52.227Z,99.90
2018-10-06T09:24:20.936Z,99.90
2018-10-06T09:26:49.579Z,1.00
2018-10-06T09:29:18.265Z,99.90
2018-10-06T09:31:46.903Z,99.90
2018-10-06T09:34:16.742Z,99.90
2018-10-06T09:36:45.157Z,99.90
2018-10-06T09:39:14.071Z,99.90
2018-10-06T09:41:43.236Z,99.90
2018-10-06T09:44:11.595Z,99.90
2018-10-06T09:46:40.082Z,99.90
2018-10-06T09:49:09.228Z,99.90
2018-10-06T09:51:37.863Z,99.90
2018-10-06T09:54:06.723Z,1.00
2018-10-06T10:01:38.403Z,99.90
2018-10-06T10:04:12.205Z,99.90
2018-10-06T10:06:40.963Z,1.00
2018-10-06T10:09:11.539Z,1.00
2018-10-06T10:11:39.930Z,1.00
2018-10-06T14:53:26.416Z,99.90
2018-10-06T14:55:54.790Z,99.90
2018-10-06T14:58:23.155Z,99.90
2018-10-06T15:00:51.863Z,99.90
2018-10-06T15:03:20.275Z,99.90
2018-10-06T15:05:48.667Z,99.90
2018-10-06T15:08:17.040Z,99.90
2018-10-06T15:10:47.184Z,99.90
2018-10-06T15:13:15.843Z,99.90
2018-10-06T15:15:44.543Z,99.90
2018-10-06T15:18:12.899Z,99.90
2018-10-06T15:20:41.263Z,99.90
2018-10-06T15:23:09.867Z,99.90
2018-10-06T15:25:38.350Z,99.90
2018-10-06T15:28:06.791Z,99.90
2018-10-06T15:30:35.130Z,99.90
2018-10-06T15:33:04.198Z,99.90
2018-10-06T15:35:32.790Z,99.90
2018-10-06T15:38:01.439Z,99.90
2018-10-06T15:40:30.096Z,99.90
2018-10-06T15:42:58.668Z,99.90
2018-10-06T15:45:27.275Z,99.90
2018-10-06T15:47:56.006Z,99.90
2018-10-06T15:50:24.921Z,99.90
2018-10-06T15:52:53.512Z,99.90
2018-10-06T15:55:22.007Z,99.90
2018-10-06T15:57:50.362Z,99.90
2018-10-06T16:00:18.760Z,99.90
2018-10-06T16:02:47.318Z,99.90
2018-10-06T16:05:15.530Z,99.90
2018-10-06T16:07:43.914Z,99.90
2018-10-06T16:10:12.264Z,99.90
2018-10-06T16:12:40.950Z,99.90
2018-10-06T16:15:09.911Z,99.90
2018-10-06T16:17:38.898Z,1.00
2018-10-06T16:20:07.608Z,1.00
2018-10-06T16:22:36.299Z,1.00
2018-10-06T16:25:04.695Z,1.00
2018-10-06T16:27:33.822Z,1.00
2018-10-06T16:30:02.786Z,1.00
2018-10-06T16:32:31.377Z,99.90
2018-10-06T16:34:59.979Z,1.00
2018-10-06T16:37:28.336Z,1.00
2018-10-06T16:39:56.718Z,1.00
2018-10-06T16:42:25.655Z,1.00
2018-10-06T16:44:54.562Z,1.00
2018-10-06T16:47:23.435Z,1.00
2018-10-06T16:49:51.794Z,1.00
2018-10-06T16:52:20.422Z,11.20
2018-10-06T16:54:49.230Z,90.60
2018-10-06T16:57:17.851Z,99.90
2018-10-06T16:59:46.470Z,99.90
2018-10-06T17:02:15.229Z,99.90
2018-10-06T17:04:44.143Z,1.00
2018-10-06T17:07:12.874Z,1.00
2018-10-06T17:09:41.811Z,99.90
2018-10-06T17:12:10.191Z,1.00
2018-10-06T17:14:38.554Z,1.00
2018-10-06T17:17:08.182Z,1.00
2018-10-06T17:19:36.806Z,1.00
2018-10-06T17:22:05.168Z,1.00
2018-10-06T17:24:34.331Z,1.00
2018-10-06T17:27:02.684Z,99.90
2018-10-06T17:29:31.498Z,1.00
2018-10-06T17:32:00.210Z,19.20
2018-10-06T17:34:28.874Z,1.00
2018-10-06T17:36:57.307Z,99.90
2018-10-06T17:39:25.952Z,99.90
2018-10-06T17:41:55.032Z,61.50
2018-10-06T17:44:23.508Z,99.90
2018-10-06T17:46:52.091Z,99.90
2018-10-06T17:49:20.479Z,99.90
2018-10-06T17:51:48.847Z,99.90
2018-10-06T17:54:17.750Z,99.90
2018-10-06T17:56:46.147Z,1.00
2018-10-06T17:59:14.502Z,99.90
2018-10-06T18:01:43.129Z,99.90
2018-10-06T18:04:11.594Z,99.90
2018-10-06T18:06:40.002Z,99.90
2018-10-06T18:09:08.347Z,1.00
2018-10-06T18:11:37.411Z,1.00
2018-10-06T18:14:05.791Z,99.90
2018-10-06T18:16:34.147Z,99.90
2018-10-06T18:19:02.799Z,1.00
2018-10-06T18:21:31.752Z,1.00
2018-10-06T18:24:00.554Z,1.00
2018-10-06T18:26:28.932Z,1.00
2018-10-06T18:28:57.606Z,1.00
2018-10-06T18:31:26.282Z,1.00
2018-10-06T18:33:54.946Z,1.00
2018-10-06T18:36:23.462Z,1.00
2018-10-06T18:38:51.731Z,1.00
2018-10-06T18:41:20.331Z,1.00
2018-10-06T18:43:49.498Z,1.00
2018-10-06T18:46:17.810Z,1.00
2018-10-06T18:48:46.170Z,1.00
2018-10-06T18:51:15.047Z,1.00
2018-10-06T18:53:43.687Z,1.00
2018-10-06T18:56:12.355Z,1.00
2018-10-06T18:58:41.000Z,1.00
2018-10-06T19:01:09.631Z,1.00
2018-10-06T19:03:38.104Z,1.00
2018-10-06T19:06:06.441Z,1.00
2018-10-06T19:08:35.063Z,1.00
2018-10-06T19:11:03.628Z,1.00
2018-10-06T19:13:32.008Z,1.00
2018-10-06T19:16:00.367Z,1.00
2018-10-06T19:18:28.730Z,1.00
2018-10-06T19:20:57.090Z,1.00
2018-10-06T19:23:25.427Z,1.00
2018-10-06T19:25:54.083Z,1.00
2018-10-06T19:28:22.543Z,1.00
2018-10-06T19:30:51.208Z,1.00
2018-10-06T19:33:20.375Z,1.00
2018-10-06T19:35:49.063Z,1.00
2018-10-06T19:38:17.438Z,1.00
2018-10-06T19:40:46.198Z,1.00
2018-10-06T19:43:14.892Z,1.00
2018-10-06T19:45:43.301Z,1.00
2018-10-06T19:48:11.854Z,1.00
2018-10-06T19:50:40.251Z,1.00
2018-10-06T19:53:08.599Z,1.00
2018-10-06T19:55:37.533Z,1.00
2018-10-06T19:58:05.970Z,1.00
2018-10-06T20:00:34.626Z,1.00
2018-10-06T20:03:03.482Z,1.00
2018-10-06T20:05:31.862Z,1.00
2018-10-06T20:08:00.469Z,1.00
2018-10-06T20:10:29.120Z,1.00
2018-10-06T20:12:57.487Z,1.00
2018-10-06T20:15:26.188Z,1.00
2018-10-06T20:17:56.095Z,1.00
2018-10-06T20:20:24.823Z,1.00
2018-10-06T20:22:53.179Z,1.00
2018-10-06T20:25:21.808Z,1.00
2018-10-06T20:27:50.504Z,1.00
2018-10-06T20:30:18.861Z,1.00
2018-10-06T20:32:47.565Z,1.00
2018-10-06T20:35:16.203Z,1.00
2018-10-06T20:37:44.602Z,1.00
2018-10-06T20:40:13.014Z,1.00
2018-10-06T20:42:41.986Z,1.00
2018-10-06T20:45:10.663Z,1.00
2018-10-06T20:47:39.026Z,1.00
2018-10-06T20:50:08.262Z,1.00
2018-10-06T20:52:37.359Z,3.50
2018-10-06T20:55:06.066Z,1.90
2018-10-06T20:57:34.474Z,10.20
2018-10-06T21:00:03.183Z,21.60
2018-10-06T21:02:31.795Z,18.90
2018-10-06T21:05:00.167Z,16.40
2018-10-06T21:07:28.607Z,17.60
2018-10-06T21:09:57.263Z,15.70
2018-10-06T21:12:25.627Z,15.20
2018-10-06T21:14:54.026Z,14.30
2018-10-06T21:17:23.007Z,10.40
2018-10-06T21:19:51.363Z,10.40
2018-10-06T21:22:19.817Z,10.40
2018-10-06T21:24:48.226Z,6.70
2018-10-06T21:27:17.122Z,1.40
2018-10-06T21:29:45.711Z,3.80
2018-10-06T21:32:14.483Z,6.20
2018-10-06T21:34:43.107Z,10.60
2018-10-06T21:37:11.894Z,7.10
2018-10-06T21:39:40.345Z,8.60
2018-10-06T21:42:08.686Z,9.50
2018-10-06T21:44:37.053Z,6.20
2018-10-06T21:47:06.082Z,9.60
2018-10-06T21:49:35.491Z,19.70
2018-10-06T21:52:04.203Z,14.90
2018-10-06T21:54:32.545Z,15.40
2018-10-06T21:57:01.470Z,13.80
2018-10-06T21:59:29.834Z,10.40
2018-10-06T22:01:58.413Z,10.10
2018-10-06T22:04:27.378Z,14.10
2018-10-06T22:06:56.118Z,16.00
2018-10-06T22:09:25.273Z,15.50
2018-10-06T22:11:54.067Z,9.30
2018-10-06T22:14:22.423Z,8.20
2018-10-06T22:16:50.787Z,6.70
2018-10-06T22:19:19.507Z,9.60
2018-10-06T22:21:48.198Z,18.20
2018-10-06T22:24:17.006Z,20.30
2018-10-06T22:26:45.395Z,22.20
2018-10-06T22:29:13.806Z,19.10
2018-10-06T22:31:42.158Z,16.30
2018-10-06T22:34:10.512Z,12.50
2018-10-06T22:36:38.875Z,13.90
2018-10-06T22:39:08.527Z,17.30
2018-10-06T22:41:37.103Z,18.60
2018-10-06T22:44:05.750Z,20.00
2018-10-06T22:46:34.238Z,20.60
2018-10-06T22:49:03.058Z,21.80
2018-10-06T22:51:31.931Z,22.60
2018-10-06T22:54:00.695Z,24.40
2018-10-06T22:56:29.222Z,23.00
2018-10-06T22:58:57.646Z,23.20
2018-10-06T23:01:26.436Z,23.10
2018-10-06T23:03:55.144Z,25.20
2018-10-06T23:06:23.506Z,25.10
2018-10-06T23:08:52.197Z,24.50
2018-10-06T23:11:21.331Z,21.90
2018-10-06T23:13:50.011Z,22.10
2018-10-06T23:16:18.608Z,20.50
2018-10-06T23:18:47.244Z,20.40
2018-10-06T23:21:16.262Z,24.70
2018-10-06T23:23:44.699Z,30.10
2018-10-06T23:26:13.390Z,29.40
2018-10-06T23:28:41.925Z,46.10
2018-10-06T23:31:11.138Z,43.30
2018-10-06T23:33:40.097Z,42.70
2018-10-06T23:36:08.679Z,38.50
2018-10-06T23:38:37.311Z,36.50
2018-10-06T23:41:05.713Z,31.90
2018-10-06T23:43:34.122Z,36.50
2018-10-06T23:46:02.551Z,43.20
2018-10-06T23:48:30.906Z,45.30
2018-10-06T23:50:59.639Z,44.10
2018-10-06T23:53:28.038Z,46.80
2018-10-06T23:55:56.410Z,45.50
2018-10-06T23:58:24.746Z,45.30
